Rochester, NY

2:33 PM EDT on August 22, 2014 (GMT -0400)
Buffalo Niagara International | Change Station
CLOSE
Current Station
Airport
Location: Buffalo,
Elevation: 702 ft
Nearby Weather Stations

Elev 702 ft 42.94 °N, 78.74 °W | Updated 39 minutes ago

Mostly Cloudy
Mostly Cloudy
80 °F
Feels Like 82 °F
N
5
Wind Variable Wind from North

Today
High -- | Low -- °F
--% Chance of Precip.
Yesterday
High -- | Low -- °F
Precip. -- in
6:23 AM 8:02 PM
Waning Crescent, 7% visible
Pressure 29.97 in
Visibility 10.0 miles
Clouds Mostly Cloudy 3000 ft
Mostly Cloudy 5000 ft
Heat Index 82 °F
Dew Point 64 °F
Humidity 58%
Rainfall 0.00 in
Snow Depth Not available.
UV 5 out of 12
Pollen 9.00 out of 12
Air Quality Not available.
Flu Activity Not available.
METAR KBUF 221754Z 36004KT 10SM BKN030 BKN050 27/18 A2998 RMK AO2 SLP148 MDT CU OHD-ALQDS 60000 T02670178 10272 20189 56008

More Conditions Fewer Conditions

Pressure 29.97 in
Visibility 10.0 miles
Clouds Mostly Cloudy 3000 ft
Mostly Cloudy 5000 ft
Heat Index 82 °F
Dew Point 64 °F
Humidity 58%
Rainfall 0.00 in
Snow Depth Not available.
UV 5 out of 12
Pollen 9.00 out of 12
Air Quality Not available.
Flu Activity Not available.
METAR KBUF 221754Z 36004KT 10SM BKN030 BKN050 27/18 A2998 RMK AO2 SLP148 MDT CU OHD-ALQDS 60000 T02670178 10272 20189 56008

More Conditions Fewer Conditions

10-Day Weather Forecast

Almanac

Astronomy

Aug. 22, 2014 Rise Set
Actual Time 6:23 AM EDT 8:02 PM EDT
Civil Twilight 5:53 AM EDT 8:32 PM EDT
Nautical Twilight 5:16 AM EDT 9:08 PM EDT
Astronomical Twilight 4:37 AM EDT 9:47 PM EDT
Moon 3:42 AM EDT 6:10 PM EDT
Length of Visible Light 14h 38m
Length of Day
13h 38m
Tomorrow will be 2m 43s shorter.
Waning Crescent, 7% of the Moon is Illuminated
Today
Waning Crescent
Aug 25
New
Sep 2
First Quarter
Sep 8
Full
Sep 15
Last Quarter

Today's Extremes

State Highs State Lows

Community

WunderPhotos

Upload Photos

1,746,216 photos uploaded!

Nearby

Air Quality

  Air Quality AQ Index Pollutant
Friday Good
PM2.5
Friday Good
OZONE
Saturday Good
OZONE
Sunday Good
OZONE
Monday Good
OZONE

Snow Depth

Station Depth Elevation
No new snow has been reported.

Earthquake Activity

City Distance Mag. Time & Date
No recent earthquake activity has been reported nearby.
Minimum magnitude displayed is 2.5.

Coastal Water Temperatures

Place Temperature
Buffalo, NY 72.0 °F
Alexandria Bay, NY 69.1 °F

Nearby Weather Stations